Time;durP1;ratioP1;P1;durP2;ratioP2;P2;SDS_P1;SDS_P2;PMS_P1;PMS_P2;Temp;Humidity;BMP_temperature;BMP_pressure;BME280_temperature;BME280_humidity;BME280_pressure;Samples;Min_cycle;Max_cycle;Signal;HPM_P1;HPM_P2
2021/10/17 00:03:57;;;;;;;0.00;0.00;;;;;;;8.34;83.19;101934.38;10220171;28;20014;-70
2021/10/17 00:08:57;;;;;;;0.07;0.07;;;;;;;8.33;82.85;101927.41;10219167;28;20035;-70
2021/10/17 00:13:58;;;;;;;0.10;0.10;;;;;;;8.32;83.00;101929.22;10211786;28;20028;-70
2021/10/17 00:18:58;;;;;;;0.10;0.10;;;;;;;8.33;82.99;101930.06;10211665;29;20034;-70
2021/10/17 00:23:58;;;;;;;0.00;0.00;;;;;;;8.30;83.49;101930.28;10210335;29;20027;-70
2021/10/17 00:28:59;;;;;;;0.00;0.00;;;;;;;8.27;83.26;101927.88;10211130;29;20300;-70
2021/10/17 00:33:59;;;;;;;0.10;0.10;;;;;;;8.23;83.42;101921.97;10232215;28;20027;-70
2021/10/17 00:38:59;;;;;;;0.00;0.00;;;;;;;8.14;82.69;101918.19;10292075;22;20050;-75
2021/10/17 00:44:01;;;;;;;0.00;0.00;;;;;;;8.03;83.20;101925.25;10332302;28;20034;-74
2021/10/17 00:49:02;;;;;;;0.10;0.10;;;;;;;7.91;83.56;101908.44;10331922;28;20739;-74
2021/10/17 00:54:03;;;;;;;0.00;0.00;;;;;;;7.83;83.70;101913.50;10330443;28;20022;-75
2021/10/17 00:59:06;;;;;;;0.00;0.00;;;;;;;7.77;84.19;101903.34;10331580;28;20481;-74
2021/10/17 01:04:07;;;;;;;0.00;0.00;;;;;;;7.76;85.14;101891.03;10330953;28;20030;-74
2021/10/17 01:09:08;;;;;;;0.00;0.00;;;;;;;7.84;85.59;101904.56;10331240;28;20392;-74
2021/10/17 01:14:09;;;;;;;0.00;0.00;;;;;;;7.89;84.88;101889.16;10330619;28;20030;-74
2021/10/17 01:19:10;;;;;;;0.00;0.00;;;;;;;7.93;85.05;101894.09;10330679;28;20026;-74
2021/10/17 01:24:10;;;;;;;0.00;0.00;;;;;;;7.96;85.74;101878.94;10330401;28;20030;-74
2021/10/17 01:29:11;;;;;;;0.00;0.00;;;;;;;7.96;85.64;101881.56;10330404;28;20394;-74
2021/10/17 01:34:12;;;;;;;0.10;0.10;;;;;;;7.96;85.15;101887.72;10330068;28;20084;-74
2021/10/17 01:39:16;;;;;;;0.10;0.10;;;;;;;7.96;85.76;101877.13;10328454;28;20026;-75
2021/10/17 01:44:24;;;;;;;0.00;0.00;;;;;;;7.98;86.28;101869.91;10345000;28;20026;-75
2021/10/17 01:49:25;;;;;;;0.00;0.00;;;;;;;8.00;85.39;101867.97;10329536;28;20488;-75
2021/10/17 01:54:25;;;;;;;0.00;0.00;;;;;;;8.00;86.32;101864.44;10361049;28;20112;-74
2021/10/17 01:59:25;;;;;;;0.10;0.10;;;;;;;8.03;85.79;101864.22;10328464;28;20019;-74
2021/10/17 02:04:26;;;;;;;0.10;0.10;;;;;;;8.03;85.82;101856.25;10329221;28;20430;-74
2021/10/17 02:09:26;;;;;;;0.00;0.00;;;;;;;8.07;85.70;101855.09;10327789;28;20019;-73
2021/10/17 02:14:26;;;;;;;0.10;0.10;;;;;;;8.11;85.46;101861.81;10329336;28;20336;-74
2021/10/17 02:19:27;;;;;;;0.00;0.00;;;;;;;8.14;85.31;101862.47;10328837;28;20022;-73
2021/10/17 02:24:27;;;;;;;0.00;0.00;;;;;;;8.18;86.37;101865.72;10328818;28;20077;-73
2021/10/17 02:29:28;;;;;;;0.00;0.00;;;;;;;8.19;85.90;101858.59;10328756;28;20304;-74
2021/10/17 02:34:28;;;;;;;0.00;0.00;;;;;;;8.20;87.33;101852.31;10359896;28;20048;-74
2021/10/17 02:39:28;;;;;;;0.07;0.07;;;;;;;8.21;87.62;101857.53;10337606;28;20373;-75
2021/10/17 02:44:28;;;;;;;0.00;0.00;;;;;;;8.24;87.48;101856.44;10328424;28;20265;-75
2021/10/17 02:49:29;;;;;;;0.00;0.00;;;;;;;8.25;87.51;101851.00;10328342;28;20023;-74
2021/10/17 02:54:29;;;;;;;0.00;0.00;;;;;;;8.28;87.26;101856.06;10328228;28;20109;-75
2021/10/17 02:59:29;;;;;;;0.00;0.00;;;;;;;8.31;88.07;101860.28;10328200;28;20377;-75
2021/10/17 03:04:30;;;;;;;0.10;0.10;;;;;;;8.30;87.75;101866.56;10328012;28;20049;-75
2021/10/17 03:09:31;;;;;;;0.00;0.00;;;;;;;8.28;87.68;101858.72;10328024;28;20489;-75
2021/10/17 03:14:31;;;;;;;0.00;0.00;;;;;;;8.28;87.64;101863.19;10327964;28;20027;-75
2021/10/17 03:19:32;;;;;;;0.00;0.00;;;;;;;8.28;88.54;101865.84;10327618;28;20084;-76
2021/10/17 03:24:33;;;;;;;0.00;0.00;;;;;;;8.25;88.77;101856.31;10330616;28;20031;-74
2021/10/17 03:29:33;;;;;;;0.10;0.10;;;;;;;8.24;88.53;101859.09;10335257;28;20105;-74
2021/10/17 03:34:33;;;;;;;0.00;0.00;;;;;;;8.18;88.58;101870.19;10334847;28;20048;-75
2021/10/17 03:39:33;;;;;;;0.00;0.00;;;;;;;8.13;89.19;101870.53;10333257;28;20030;-76
2021/10/17 03:44:34;;;;;;;0.00;0.00;;;;;;;8.11;89.58;101867.97;10334071;28;20026;-75
2021/10/17 03:49:34;;;;;;;0.00;0.00;;;;;;;8.14;89.88;101864.25;10333032;28;20026;-76
2021/10/17 03:54:35;;;;;;;0.00;0.00;;;;;;;8.18;90.16;101873.69;10333958;28;20367;-75
2021/10/17 03:59:35;;;;;;;0.10;0.10;;;;;;;8.20;90.28;101870.88;10332459;28;20328;-74
2021/10/17 04:04:36;;;;;;;0.00;0.00;;;;;;;8.23;90.45;101871.53;10333517;28;20080;-74
2021/10/17 04:09:37;;;;;;;0.00;0.00;;;;;;;8.25;90.39;101876.69;10333843;28;20022;-75
2021/10/17 04:14:38;;;;;;;0.10;0.10;;;;;;;8.26;90.31;101868.63;10333478;28;20183;-75
2021/10/17 04:19:38;;;;;;;0.00;0.00;;;;;;;8.27;90.96;101874.78;10333374;28;20149;-75
2021/10/17 04:24:38;;;;;;;0.00;0.00;;;;;;;8.30;90.56;101874.53;10332980;28;20041;-75
2021/10/17 04:29:39;;;;;;;0.05;0.05;;;;;;;8.33;90.80;101874.31;10332881;28;20081;-73
2021/10/17 04:34:39;;;;;;;0.00;0.00;;;;;;;8.35;90.58;101867.91;10331848;28;20038;-75
2021/10/17 04:39:41;;;;;;;0.00;0.00;;;;;;;8.37;90.50;101868.63;10331984;28;20385;-75
2021/10/17 04:44:41;;;;;;;0.10;0.10;;;;;;;8.34;90.18;101873.31;10332378;28;20444;-75
2021/10/17 04:49:41;;;;;;;0.10;0.10;;;;;;;8.32;90.50;101880.56;10331141;28;20073;-75
2021/10/17 04:54:42;;;;;;;0.00;0.00;;;;;;;8.35;90.01;101875.03;10331837;28;20022;-75
2021/10/17 04:59:42;;;;;;;0.00;0.00;;;;;;;8.36;90.57;101885.53;10331911;28;20281;-75
2021/10/17 05:04:44;;;;;;;0.10;0.10;;;;;;;8.39;90.29;101887.97;10331760;28;20038;-75
2021/10/17 05:09:45;;;;;;;0.10;0.10;;;;;;;8.42;90.10;101889.53;10332822;28;20392;-75
2021/10/17 05:14:45;;;;;;;0.00;0.00;;;;;;;8.44;89.59;101890.28;10330896;28;20065;-75
2021/10/17 05:19:45;;;;;;;0.00;0.00;;;;;;;8.46;90.30;101892.81;10331686;28;20401;-75
2021/10/17 05:24:46;;;;;;;0.08;0.08;;;;;;;8.47;91.14;101891.84;10331589;28;20445;-75
2021/10/17 05:29:46;;;;;;;0.00;0.00;;;;;;;8.49;90.33;101895.22;10330854;28;20053;-75
2021/10/17 05:34:46;;;;;;;0.10;0.10;;;;;;;8.50;90.90;101897.75;10329041;28;20277;-75
2021/10/17 05:39:46;;;;;;;0.00;0.00;;;;;;;8.50;90.84;101897.75;10330074;28;20401;-75
2021/10/17 05:44:47;;;;;;;0.10;0.10;;;;;;;8.50;90.92;101905.72;10329818;28;20100;-75
2021/10/17 05:49:47;;;;;;;0.10;0.10;;;;;;;8.51;90.75;101912.72;10329638;28;20022;-75
2021/10/17 05:54:48;;;;;;;0.00;0.00;;;;;;;8.51;90.93;101902.09;10329780;28;20364;-75
2021/10/17 05:59:48;;;;;;;0.00;0.00;;;;;;;8.52;91.65;101914.44;10330106;28;20022;-76
2021/10/17 06:04:48;;;;;;;0.00;0.00;;;;;;;8.53;91.29;101917.94;10328125;28;20273;-75
2021/10/17 06:09:49;;;;;;;0.00;0.00;;;;;;;8.53;91.07;101913.47;10329933;28;20029;-75
2021/10/17 06:14:50;;;;;;;0.03;0.03;;;;;;;8.55;91.16;101931.91;10327599;28;20026;-75
2021/10/17 06:19:50;;;;;;;0.00;0.00;;;;;;;8.55;91.66;101930.13;10355936;28;20465;-76
2021/10/17 06:24:50;;;;;;;0.00;0.00;;;;;;;8.56;92.02;101926.50;10328958;28;20031;-75
2021/10/17 06:29:51;;;;;;;0.10;0.10;;;;;;;8.64;91.28;101931.22;10328675;28;20022;-75
2021/10/17 06:34:51;;;;;;;0.10;0.10;;;;;;;8.70;91.45;101927.25;10328765;28;20370;-75
2021/10/17 06:39:51;;;;;;;0.00;0.00;;;;;;;8.74;91.98;101934.84;10348512;22;20503;-72
2021/10/17 06:44:52;;;;;;;0.10;0.10;;;;;;;8.73;92.47;101927.00;10361604;28;20023;-73
2021/10/17 06:49:52;;;;;;;0.10;0.10;;;;;;;8.74;92.22;101928.69;10339076;28;20356;-72
2021/10/17 06:54:52;;;;;;;0.03;0.03;;;;;;;8.76;92.70;101924.94;10333711;28;20022;-72
2021/10/17 06:59:53;;;;;;;0.10;0.10;;;;;;;8.76;92.07;101932.91;10342793;28;20030;-71
2021/10/17 07:04:53;;;;;;;0.10;0.10;;;;;;;8.75;92.08;101930.38;10363545;28;20091;-72
2021/10/17 07:09:53;;;;;;;0.00;0.00;;;;;;;8.76;92.48;101929.41;10335493;28;20023;-72
2021/10/17 07:14:54;;;;;;;0.00;0.00;;;;;;;8.75;92.59;101933.84;10346161;28;20026;-72
2021/10/17 07:19:54;;;;;;;0.00;0.00;;;;;;;8.78;92.04;101938.09;10351437;28;20081;-72
2021/10/17 07:24:54;;;;;;;0.00;0.00;;;;;;;8.80;92.13;101942.31;10350586;28;20068;-72
2021/10/17 07:29:54;;;;;;;0.03;0.03;;;;;;;8.88;91.92;101954.19;10372833;28;20050;-72
2021/10/17 07:34:55;;;;;;;0.10;0.10;;;;;;;8.91;91.82;101951.28;10359149;28;20393;-72
2021/10/17 07:39:55;;;;;;;0.10;0.10;;;;;;;8.90;91.88;101953.09;10358967;28;20033;-72
2021/10/17 07:44:55;;;;;;;0.00;0.00;;;;;;;8.87;92.50;101958.63;10361372;28;20064;-72
2021/10/17 07:49:56;;;;;;;0.00;0.00;;;;;;;8.81;93.11;101959.97;10350292;28;20112;-72
2021/10/17 07:54:56;;;;;;;0.00;0.00;;;;;;;8.74;94.88;101960.56;10339022;28;20080;-73
2021/10/17 07:59:56;;;;;;;0.00;0.00;;;;;;;8.71;95.47;101969.63;10351760;28;20014;-72
2021/10/17 08:04:57;;;;;;;0.10;0.10;;;;;;;8.78;96.41;101973.47;10347169;28;20272;-73
2021/10/17 08:09:57;;;;;;;0.10;0.10;;;;;;;8.88;96.12;101978.09;10338072;28;20014;-73
2021/10/17 08:14:57;;;;;;;0.10;0.10;;;;;;;8.91;95.11;101975.19;10346045;28;20015;-73
2021/10/17 08:19:58;;;;;;;0.00;0.00;;;;;;;8.91;95.65;101980.50;10346628;28;20077;-72
2021/10/17 08:24:58;;;;;;;0.00;0.00;;;;;;;8.90;95.24;101973.47;10368274;28;20113;-73
2021/10/17 08:29:58;;;;;;;0.10;0.10;;;;;;;8.82;95.87;101974.94;10371078;28;20261;-73
2021/10/17 08:34:58;;;;;;;0.00;0.00;;;;;;;8.77;96.08;101981.56;10372905;28;20034;-74
2021/10/17 08:39:59;;;;;;;0.10;0.10;;;;;;;8.73;97.36;101972.16;10372365;28;20037;-74
2021/10/17 08:45:00;;;;;;;0.00;0.00;;;;;;;8.72;97.08;101973.09;10345617;28;20034;-74
2021/10/17 08:50:01;;;;;;;0.10;0.10;;;;;;;8.75;97.24;101983.50;10331724;28;20026;-73
2021/10/17 08:55:02;;;;;;;0.00;0.00;;;;;;;8.82;96.89;101979.41;10331848;28;20273;-74
2021/10/17 09:00:03;;;;;;;0.10;0.10;;;;;;;8.91;96.44;101986.66;10330933;28;20029;-73
2021/10/17 09:05:07;;;;;;;0.03;0.03;;;;;;;9.02;96.16;101985.81;10331309;28;20127;-73
2021/10/17 09:10:16;;;;;;;0.03;0.03;;;;;;;9.14;95.78;101979.53;10334029;28;20010;-72
2021/10/17 09:15:27;;;;;;;0.10;0.10;;;;;;;9.30;95.67;101976.50;10371197;28;20092;-73
2021/10/17 09:20:28;;;;;;;0.10;0.10;;;;;;;9.39;94.94;101978.41;10370712;28;20030;-73
2021/10/17 09:25:34;;;;;;;0.10;0.10;;;;;;;9.46;94.87;101982.28;10370491;28;20029;-73
2021/10/17 09:30:34;;;;;;;0.00;0.00;;;;;;;9.52;94.38;101986.25;10370971;28;20013;-74
2021/10/17 09:35:35;;;;;;;0.00;0.00;;;;;;;9.59;93.58;101975.97;10358972;28;20033;-72
2021/10/17 09:40:37;;;;;;;0.10;0.10;;;;;;;9.65;93.16;101978.97;10345053;28;20022;-73
2021/10/17 09:45:42;;;;;;;0.10;0.10;;;;;;;9.72;93.59;101988.16;10335017;28;20113;-73
2021/10/17 09:50:42;;;;;;;;;;;;;;;9.78;93.63;101992.13;10339260;28;20037;-73
2021/10/17 09:55:52;;;;;;;0.00;0.00;;;;;;;9.84;93.40;101996.94;10350060;28;19916;-73
2021/10/17 10:00:52;;;;;;;0.00;0.00;;;;;;;9.90;92.94;101992.94;10349640;28;20104;-74
2021/10/17 10:05:57;;;;;;;0.00;0.00;;;;;;;9.93;92.55;101990.84;10352596;28;20109;-73
2021/10/17 10:10:58;;;;;;;;;;;;;;;10.02;92.78;101993.72;10351711;28;20648;-73
2021/10/17 10:15:59;;;;;;;0.10;0.10;;;;;;;10.08;91.57;101994.06;10348691;28;19910;-73
2021/10/17 10:21:00;;;;;;;0.00;0.00;;;;;;;10.14;91.57;101985.56;10350111;28;20034;-73
2021/10/17 10:26:00;;;;;;;0.00;0.00;;;;;;;10.24;90.95;101990.97;10344815;28;20029;-73
2021/10/17 10:31:01;;;;;;;0.10;0.10;;;;;;;10.28;90.64;101992.44;10334070;28;20028;-73
2021/10/17 10:36:16;;;;;;;0.10;0.10;;;;;;;10.29;90.54;101986.13;10372512;28;20033;-72
2021/10/17 10:41:20;;;;;;;0.10;0.10;;;;;;;10.42;91.27;101989.47;10353904;28;20329;-73
2021/10/17 10:46:30;;;;;;;0.10;0.10;;;;;;;10.53;90.33;101983.22;10334198;28;20484;-73
2021/10/17 10:51:48;;;;;;;0.10;0.10;;;;;;;10.59;90.61;101988.03;10335843;28;20019;-73
2021/10/17 10:56:52;;;;;;;0.10;0.10;;;;;;;10.60;90.05;101994.19;10336206;28;20378;-72
2021/10/17 11:02:07;;;;;;;;;;;;;;;10.63;90.00;102009.91;10335423;28;20162;-72
2021/10/17 11:07:22;;;;;;;0.10;0.10;;;;;;;10.69;89.76;102009.41;10336200;28;19910;-73
2021/10/17 11:12:40;;;;;;;0.00;0.00;;;;;;;10.75;89.88;102014.19;10349226;28;20109;-73
2021/10/17 11:18:12;;;;;;;0.10;0.10;;;;;;;10.77;88.85;102025.59;10364121;28;20035;-74
2021/10/17 11:23:23;;;;;;;0.10;0.10;;;;;;;10.78;88.29;102021.09;10344576;28;20046;-74
2021/10/17 11:28:25;;;;;;;0.10;0.10;;;;;;;10.83;88.46;102017.06;10333397;28;20023;-74
2021/10/17 11:33:26;;;;;;;0.00;0.00;;;;;;;10.87;87.23;102014.97;10340052;28;20018;-74
2021/10/17 11:38:27;;;;;;;0.10;0.10;;;;;;;10.88;87.07;102014.84;10351570;28;20539;-75
2021/10/17 11:43:34;;;;;;;0.10;0.10;;;;;;;10.92;88.59;102014.59;10360729;28;20045;-74
2021/10/17 11:48:35;;;;;;;0.00;0.00;;;;;;;10.96;89.70;102021.31;10344154;28;20115;-77
2021/10/17 11:53:36;;;;;;;0.00;0.00;;;;;;;10.98;90.32;102024.72;10344978;28;20029;-75
2021/10/17 11:58:38;;;;;;;0.00;0.00;;;;;;;10.95;88.93;102016.97;10327229;28;20482;-76
2021/10/17 12:03:47;;;;;;;0.10;0.10;;;;;;;10.94;89.07;102015.28;10333376;28;20085;-76
2021/10/17 12:08:53;;;;;;;0.00;0.00;;;;;;;10.99;89.10;102005.06;10332109;28;20084;-74
2021/10/17 12:13:55;;;;;;;0.10;0.10;;;;;;;11.04;88.54;102003.69;10330981;28;20022;-74
2021/10/17 12:19:03;;;;;;;0.10;0.10;;;;;;;11.08;89.29;102001.59;10330108;28;20026;-74
2021/10/17 12:24:04;;;;;;;0.10;0.10;;;;;;;11.14;89.87;102003.75;10330379;28;20026;-75
2021/10/17 12:29:13;;;;;;;0.10;0.10;;;;;;;11.18;88.19;102002.50;10328009;28;20026;-75
2021/10/17 12:34:14;;;;;;;0.10;0.10;;;;;;;11.16;87.90;102011.59;10327517;28;20474;-75
2021/10/17 12:39:19;;;;;;;0.10;0.10;;;;;;;11.15;88.54;101999.25;10327517;28;20026;-74
2021/10/17 12:44:19;;;;;;;0.10;0.10;;;;;;;11.16;87.65;102007.09;10369327;22;20460;-72
2021/10/17 12:49:19;;;;;;;0.10;0.10;;;;;;;11.17;88.32;102005.28;10350160;28;20031;-72
2021/10/17 12:54:23;;;;;;;0.10;0.10;;;;;;;11.22;87.58;101998.56;10347487;28;20339;-73
2021/10/17 12:59:28;;;;;;;0.10;0.10;;;;;;;11.31;86.27;102010.25;10343195;28;20053;-72
2021/10/17 13:04:55;;;;;;;0.10;0.10;;;;;;;11.44;86.37;102010.03;10362276;28;20429;-71
2021/10/17 13:10:06;;;;;;;0.10;0.10;;;;;;;11.55;86.14;102004.59;10346728;28;20033;-71
2021/10/17 13:15:10;;;;;;;0.00;0.00;;;;;;;11.63;87.38;102011.88;10354039;28;20049;-71
2021/10/17 13:20:14;;;;;;;0.10;0.10;;;;;;;11.60;86.64;102010.31;10355886;28;20018;-71
2021/10/17 13:25:16;;;;;;;0.10;0.10;;;;;;;11.53;86.80;102012.72;10346690;28;20045;-71
2021/10/17 13:30:17;;;;;;;0.10;0.10;;;;;;;11.45;86.59;102001.88;10352545;28;20038;-72
2021/10/17 13:35:18;;;;;;;0.10;0.10;;;;;;;11.41;85.80;102002.28;10353100;28;20026;-71
2021/10/17 13:40:22;;;;;;;0.10;0.10;;;;;;;11.41;86.47;102000.47;10347386;28;20125;-71
2021/10/17 13:45:25;;;;;;;0.10;0.10;;;;;;;11.42;86.83;102004.81;10358326;28;20420;-71
2021/10/17 13:50:26;;;;;;;0.10;0.10;;;;;;;11.43;87.34;102005.66;10357376;28;20068;-71
2021/10/17 13:55:27;;;;;;;0.10;0.10;;;;;;;11.41;87.62;102010.28;10344825;28;20022;-72
2021/10/17 14:00:27;;;;;;;0.00;0.00;;;;;;;11.36;87.52;102001.84;10339052;28;20469;-72
2021/10/17 14:05:31;;;;;;;0.10;0.10;;;;;;;11.33;87.96;102014.47;10348277;28;20533;-71
2021/10/17 14:10:32;;;;;;;0.10;0.10;;;;;;;11.30;87.51;102006.75;10351797;28;20281;-72
2021/10/17 14:15:34;;;;;;;0.10;0.10;;;;;;;11.27;87.21;102009.69;10346435;28;20432;-72
2021/10/17 14:20:34;;;;;;;0.10;0.10;;;;;;;11.18;87.97;102002.50;10339663;28;20437;-71
2021/10/17 14:25:34;;;;;;;0.10;0.10;;;;;;;11.10;88.23;102003.16;10355748;28;20076;-71
2021/10/17 14:30:39;;;;;;;0.10;0.10;;;;;;;11.05;87.55;102004.53;10352761;28;20445;-71
2021/10/17 14:35:40;;;;;;;0.00;0.00;;;;;;;10.99;87.18;102008.56;10352230;28;20077;-71
2021/10/17 14:40:47;;;;;;;0.10;0.10;;;;;;;10.93;86.61;102008.25;10354664;28;20426;-72
2021/10/17 14:45:48;;;;;;;0.10;0.10;;;;;;;10.85;86.75;102009.78;10335084;28;20035;-71
2021/10/17 14:50:49;;;;;;;0.00;0.00;;;;;;;10.78;87.39;102003.28;10346646;28;20400;-72
2021/10/17 14:55:50;;;;;;;0.10;0.10;;;;;;;10.77;86.99;102006.91;10337893;28;20026;-72
2021/10/17 15:00:50;;;;;;;0.10;0.10;;;;;;;10.76;86.50;102010.56;10344076;28;20022;-72
2021/10/17 15:05:50;;;;;;;0.10;0.10;;;;;;;10.76;87.54;102015.91;10337102;28;20022;-71
2021/10/17 15:10:51;;;;;;;0.10;0.10;;;;;;;10.73;86.52;102012.63;10339676;28;20272;-72
2021/10/17 15:15:51;;;;;;;0.10;0.10;;;;;;;10.70;87.68;102019.06;10350888;28;20026;-72
2021/10/17 15:20:52;;;;;;;0.10;0.10;;;;;;;10.64;88.75;102009.78;10356267;28;20018;-72
2021/10/17 15:25:52;;;;;;;0.08;0.08;;;;;;;10.58;89.00;102020.97;10350198;28;20031;-72
2021/10/17 15:30:52;;;;;;;0.10;0.10;;;;;;;10.55;88.83;102015.06;10353756;28;20026;-72
2021/10/17 15:35:53;;;;;;;0.00;0.00;;;;;;;10.49;89.81;102023.56;10352311;28;20041;-72
2021/10/17 15:40:53;;;;;;;0.10;0.10;;;;;;;10.47;90.01;102028.16;10360932;28;20080;-72
2021/10/17 15:45:53;;;;;;;0.07;0.07;;;;;;;10.42;90.35;102024.09;10340872;28;20054;-72
2021/10/17 15:50:54;;;;;;;0.10;0.10;;;;;;;10.38;90.54;102033.31;10360391;28;20108;-71
2021/10/17 15:55:54;;;;;;;0.00;0.00;;;;;;;10.38;90.14;102048.44;10348787;28;20022;-71
2021/10/17 16:00:54;;;;;;;0.10;0.10;;;;;;;10.35;90.14;102048.69;10353261;28;20024;-71
2021/10/17 16:05:55;;;;;;;0.10;0.10;;;;;;;10.32;89.78;102047.13;10347675;28;20036;-71
2021/10/17 16:10:55;;;;;;;0.00;0.00;;;;;;;10.30;89.05;102050.91;10363154;28;20038;-71
2021/10/17 16:15:55;;;;;;;0.10;0.10;;;;;;;10.29;87.29;102049.19;10351146;28;20370;-71
2021/10/17 16:20:56;;;;;;;0.00;0.00;;;;;;;10.27;88.64;102049.34;10349681;28;20026;-71
2021/10/17 16:25:57;;;;;;;0.00;0.00;;;;;;;10.25;87.85;102037.94;10342826;28;20093;-71
2021/10/17 16:36:01;;;;;;;0.10;0.10;;;;;;;10.22;86.37;102054.16;10361060;28;20688;-71
2021/10/17 16:41:03;;;;;;;0.10;0.10;;;;;;;10.20;85.07;102061.44;10338924;28;20481;-70
2021/10/17 16:46:06;;;;;;;0.10;0.10;;;;;;;10.21;84.84;102063.13;10358517;28;20041;-70
2021/10/17 16:51:06;;;;;;;0.10;0.10;;;;;;;10.20;85.63;102051.63;10346729;28;20453;-71
2021/10/17 16:56:07;;;;;;;0.10;0.10;;;;;;;10.17;86.53;102056.34;10354676;28;20054;-72
2021/10/17 17:01:07;;;;;;;0.10;0.10;;;;;;;10.13;88.13;102057.59;10362387;28;20284;-71
2021/10/17 17:06:07;;;;;;;0.00;0.00;;;;;;;10.10;88.55;102065.84;10341051;28;20178;-71
2021/10/17 17:11:08;;;;;;;0.10;0.10;;;;;;;10.05;89.06;102073.34;10354194;28;20034;-71
2021/10/17 17:16:08;;;;;;;0.10;0.10;;;;;;;10.03;89.17;102067.28;10349746;28;20025;-71
2021/10/17 17:21:09;;;;;;;0.00;0.00;;;;;;;10.00;89.07;102076.38;10348107;28;20026;-71
2021/10/17 17:26:10;;;;;;;0.10;0.10;;;;;;;9.97;89.39;102072.13;10348766;28;20026;-71
2021/10/17 17:31:11;;;;;;;0.10;0.10;;;;;;;9.93;90.79;102085.84;10346532;28;20023;-70
2021/10/17 17:36:11;;;;;;;0.10;0.10;;;;;;;9.88;90.83;102074.69;10358665;28;20048;-70
2021/10/17 17:41:11;;;;;;;0.10;0.10;;;;;;;9.83;90.18;102077.75;10346849;28;20470;-71
2021/10/17 17:46:12;;;;;;;0.00;0.00;;;;;;;9.80;90.29;102077.97;10342732;28;20038;-70
2021/10/17 17:51:12;;;;;;;0.00;0.00;;;;;;;9.78;90.62;102079.09;10352431;28;20484;-71
2021/10/17 17:56:12;;;;;;;0.07;0.07;;;;;;;9.74;91.17;102076.69;10351847;28;20072;-70
2021/10/17 18:01:13;;;;;;;0.00;0.00;;;;;;;9.72;91.63;102088.41;10351961;28;20782;-71
2021/10/17 18:06:13;;;;;;;0.10;0.10;;;;;;;9.71;91.26;102090.19;10356057;28;20029;-70
2021/10/17 18:11:14;;;;;;;0.10;0.10;;;;;;;9.71;91.51;102086.69;10344025;28;20026;-69
2021/10/17 18:16:15;;;;;;;0.10;0.10;;;;;;;9.73;90.43;102085.59;10349261;28;20036;-70
2021/10/17 18:21:15;;;;;;;0.00;0.00;;;;;;;9.77;89.97;102088.03;10342572;28;20018;-69
2021/10/17 18:26:15;;;;;;;0.10;0.10;;;;;;;9.76;88.99;102084.53;10349153;28;20144;-70
2021/10/17 18:31:16;;;;;;;0.10;0.10;;;;;;;9.77;89.90;102090.69;10346292;28;20265;-70
2021/10/17 18:36:16;;;;;;;0.10;0.10;;;;;;;9.74;89.17;102097.09;10362433;28;20053;-70
2021/10/17 18:41:16;;;;;;;0.10;0.10;;;;;;;9.74;89.41;102097.09;10344861;28;20453;-68
2021/10/17 18:46:17;;;;;;;0.10;0.10;;;;;;;9.70;89.46;102090.34;10351131;28;20378;-68
2021/10/17 18:51:17;;;;;;;0.10;0.10;;;;;;;9.68;88.49;102090.44;10339860;28;20029;-68
2021/10/17 18:56:17;;;;;;;0.00;0.00;;;;;;;9.69;89.02;102097.47;10340771;28;20381;-68
2021/10/17 19:01:18;;;;;;;0.10;0.10;;;;;;;9.67;89.05;102103.88;10361554;28;20034;-69
2021/10/17 19:06:18;;;;;;;0.00;0.00;;;;;;;9.66;88.37;102111.03;10353998;28;20030;-68
2021/10/17 19:11:18;;;;;;;0.10;0.10;;;;;;;9.67;89.49;102111.88;10357679;28;20029;-69
2021/10/17 19:16:19;;;;;;;0.10;0.10;;;;;;;9.62;90.85;102108.72;10348189;28;20026;-69
2021/10/17 19:21:19;;;;;;;0.00;0.00;;;;;;;9.51;91.92;102105.09;10352510;28;20021;-70
2021/10/17 19:26:19;;;;;;;0.00;0.00;;;;;;;9.40;93.24;102110.41;10374553;28;20052;-68
2021/10/17 19:31:20;;;;;;;0.05;0.05;;;;;;;9.35;93.55;102112.59;10373385;28;20450;-69
2021/10/17 19:36:20;;;;;;;0.00;0.00;;;;;;;9.32;93.98;102112.00;10374270;28;20029;-70
2021/10/17 19:41:21;;;;;;;0.10;0.10;;;;;;;9.30;95.16;102128.88;10374059;28;20531;-69
2021/10/17 19:46:22;;;;;;;0.10;0.10;;;;;;;9.27;94.01;102123.81;10372425;28;20367;-70
2021/10/17 19:51:22;;;;;;;0.10;0.10;;;;;;;9.22;94.77;102125.13;10372200;28;20021;-69
2021/10/17 19:56:23;;;;;;;0.10;0.10;;;;;;;9.19;94.67;102128.03;10370646;28;20057;-69
2021/10/17 20:01:24;;;;;;;0.00;0.00;;;;;;;9.17;94.69;102136.13;10372315;28;20041;-69
2021/10/17 20:06:24;;;;;;;0.00;0.00;;;;;;;9.16;95.24;102137.09;10372578;28;20116;-69
2021/10/17 20:11:25;;;;;;;0.10;0.10;;;;;;;9.13;95.80;102133.81;10372939;28;20025;-68
2021/10/17 20:16:25;;;;;;;0.10;0.10;;;;;;;9.13;94.83;102137.31;10372004;28;20048;-68
2021/10/17 20:21:25;;;;;;;0.10;0.10;;;;;;;9.13;95.13;102144.44;10371722;28;20315;-69
2021/10/17 20:26:28;;;;;;;0.10;0.10;;;;;;;9.12;95.44;102148.09;10371505;28;20265;-69
2021/10/17 20:31:28;;;;;;;0.10;0.10;;;;;;;9.11;95.94;102152.56;10370494;28;20029;-69
2021/10/17 20:41:28;;;;;;;0.00;0.00;;;;;;;9.12;96.64;102151.59;10371035;28;20026;-68
2021/10/17 20:46:29;;;;;;;0.10;0.10;;;;;;;9.12;96.22;102153.41;10370886;28;20029;-68
2021/10/17 20:51:30;;;;;;;0.00;0.00;;;;;;;9.12;96.28;102148.09;10370806;28;20344;-68
2021/10/17 20:56:31;;;;;;;0.00;0.00;;;;;;;9.11;96.19;102141.09;10370463;28;20025;-69
2021/10/17 21:01:31;;;;;;;0.00;0.00;;;;;;;9.10;96.57;102139.38;10370485;28;20022;-69
2021/10/17 21:06:31;;;;;;;0.10;0.10;;;;;;;9.11;95.85;102146.41;10370166;28;20283;-69
2021/10/17 21:11:32;;;;;;;0.00;0.00;;;;;;;9.11;96.56;102141.09;10370581;28;20315;-69
2021/10/17 21:16:33;;;;;;;0.10;0.10;;;;;;;9.09;96.92;102135.88;10370121;28;20264;-68
2021/10/17 21:21:33;;;;;;;0.10;0.10;;;;;;;9.06;96.55;102146.75;10370067;28;20462;-68
2021/10/17 21:26:33;;;;;;;0.00;0.00;;;;;;;9.05;96.05;102143.25;10369019;28;20273;-68
2021/10/17 21:31:34;;;;;;;0.10;0.10;;;;;;;9.06;96.17;102146.75;10370123;28;20370;-68
2021/10/17 21:36:34;;;;;;;0.08;0.08;;;;;;;9.04;96.21;102146.00;10369878;28;20044;-68
2021/10/17 21:41:35;;;;;;;0.00;0.00;;;;;;;9.03;95.80;102155.78;10369686;28;20037;-69
2021/10/17 21:46:35;;;;;;;0.00;0.00;;;;;;;9.02;95.65;102154.09;10370131;28;20040;-69
2021/10/17 21:51:35;;;;;;;0.38;0.10;;;;;;;8.99;94.95;102158.81;10369399;28;20028;-69
2021/10/17 21:56:36;;;;;;;0.00;0.00;;;;;;;8.97;95.22;102158.91;10369324;28;20029;-69
2021/10/17 22:01:36;;;;;;;0.07;0.07;;;;;;;8.99;95.37;102164.13;10369230;28;20465;-68
2021/10/17 22:06:37;;;;;;;0.10;0.10;;;;;;;9.00;94.63;102165.81;10368995;28;20300;-69
2021/10/17 22:11:38;;;;;;;0.00;0.00;;;;;;;9.03;94.85;102160.25;10367643;28;20018;-68
2021/10/17 22:16:39;;;;;;;0.00;0.00;;;;;;;9.06;94.20;102160.03;10368804;28;20369;-69
2021/10/17 22:21:40;;;;;;;0.10;0.10;;;;;;;9.14;92.84;102156.78;10368504;28;20042;-69
2021/10/17 22:26:40;;;;;;;0.10;0.10;;;;;;;9.15;92.88;102159.31;10368375;28;20271;-69
2021/10/17 22:31:40;;;;;;;0.10;0.10;;;;;;;9.21;91.75;102152.69;10368807;28;20061;-69
2021/10/17 22:36:41;;;;;;;0.00;0.00;;;;;;;9.26;91.87;102156.69;10368126;28;20018;-69
2021/10/17 22:41:41;;;;;;;0.00;0.00;;;;;;;9.27;90.74;102162.84;10369077;28;20024;-69
2021/10/17 22:46:42;;;;;;;0.10;0.10;;;;;;;9.29;90.84;102161.78;10368514;28;20054;-69
2021/10/17 22:51:43;;;;;;;0.00;0.00;;;;;;;9.33;90.01;102159.72;10367771;28;20074;-69
2021/10/17 22:56:44;;;;;;;0.00;0.00;;;;;;;9.36;89.21;102167.44;10367795;28;20026;-69
2021/10/17 23:01:45;;;;;;;0.10;0.10;;;;;;;9.36;88.92;102162.13;10366399;28;20363;-68
2021/10/17 23:06:45;;;;;;;0.10;0.10;;;;;;;9.39;89.24;102163.72;10367642;28;20026;-69
2021/10/17 23:11:45;;;;;;;0.00;0.00;;;;;;;9.38;88.51;102170.84;10367669;28;20058;-69
2021/10/17 23:16:46;;;;;;;0.00;0.00;;;;;;;9.40;88.31;102176.91;10367382;28;20113;-68
2021/10/17 23:21:47;;;;;;;0.10;0.10;;;;;;;9.42;88.07;102176.78;10365885;28;20026;-69
2021/10/17 23:26:47;;;;;;;0.10;0.10;;;;;;;9.42;88.09;102177.63;10367222;28;20341;-69
2021/10/17 23:31:48;;;;;;;0.00;0.00;;;;;;;9.42;87.79;102174.94;10367249;28;20495;-70